createdAt,value
2023-02-13T00:02:11.664Z,74.00
2023-02-13T00:07:11.600Z,74.00
2023-02-13T00:12:11.529Z,72.00
2023-02-13T00:17:11.455Z,72.00
2023-02-13T00:22:11.394Z,74.00
2023-02-13T00:27:11.359Z,74.00
2023-02-13T00:32:11.432Z,74.00
2023-02-13T00:37:11.262Z,74.00
2023-02-13T00:42:11.162Z,74.00
2023-02-13T00:47:11.107Z,76.00
2023-02-13T00:52:11.075Z,77.00
2023-02-13T00:57:10.967Z,78.00
2023-02-13T01:02:10.940Z,79.00
2023-02-13T01:07:10.851Z,80.00
2023-02-13T01:12:10.816Z,78.00
2023-02-13T01:17:10.727Z,78.00
2023-02-13T01:22:10.653Z,78.00
2023-02-13T01:27:10.585Z,77.00
2023-02-13T01:32:10.581Z,78.00
2023-02-13T01:37:10.485Z,76.00
2023-02-13T01:42:10.381Z,76.00
2023-02-13T01:47:10.361Z,74.00
2023-02-13T01:52:10.289Z,75.00
2023-02-13T01:57:10.273Z,72.00
2023-02-13T02:02:10.284Z,73.00
2023-02-13T02:07:10.075Z,71.00
2023-02-13T02:12:10.044Z,71.00
2023-02-13T02:17:09.981Z,71.00
2023-02-13T02:22:09.903Z,70.00
2023-02-13T02:27:09.836Z,70.00
2023-02-13T02:32:09.824Z,70.00
2023-02-13T02:37:09.754Z,71.00
2023-02-13T02:42:09.687Z,73.00
2023-02-13T02:47:09.591Z,73.00
2023-02-13T02:52:09.542Z,74.00
2023-02-13T02:57:09.478Z,76.00
2023-02-13T03:02:09.412Z,76.00
2023-02-13T03:07:09.349Z,76.00
2023-02-13T03:12:09.301Z,76.00
2023-02-13T03:17:09.225Z,76.00
2023-02-13T03:22:09.157Z,76.00
2023-02-13T03:27:09.095Z,74.00
2023-02-13T03:32:09.038Z,70.00
2023-02-13T03:37:08.996Z,69.00
2023-02-13T03:42:08.987Z,68.00
2023-02-13T03:47:08.851Z,67.00
2023-02-13T03:52:08.798Z,68.00
2023-02-13T03:57:08.767Z,67.00
2023-02-13T04:02:08.772Z,69.00
2023-02-13T04:07:08.627Z,67.00
2023-02-13T04:12:08.577Z,67.00
2023-02-13T04:17:08.455Z,68.00
2023-02-13T04:22:08.511Z,69.00
2023-02-13T04:27:08.429Z,72.00
2023-02-13T04:32:08.362Z,75.00
2023-02-13T04:37:08.246Z,75.00
2023-02-13T04:42:08.214Z,74.00
2023-02-13T04:47:08.173Z,74.00
2023-02-13T04:52:08.057Z,73.00
2023-02-13T04:57:07.998Z,75.00
2023-02-13T05:02:07.928Z,74.00
2023-02-13T05:07:07.883Z,75.00
2023-02-13T05:12:07.813Z,75.00
2023-02-13T05:17:07.762Z,74.00
2023-02-13T05:22:07.694Z,71.00
2023-02-13T05:27:07.636Z,74.00
2023-02-13T05:32:07.649Z,75.00
2023-02-13T05:37:07.495Z,76.00
2023-02-13T05:42:07.425Z,78.00
2023-02-13T05:47:07.351Z,77.00
2023-02-13T05:52:07.303Z,78.00
2023-02-13T05:57:07.251Z,78.00
2023-02-13T06:02:07.159Z,77.00
2023-02-13T06:07:07.094Z,78.00
2023-02-13T06:12:07.037Z,78.00
2023-02-13T06:17:07.016Z,76.00
2023-02-13T06:22:06.932Z,75.00
2023-02-13T06:27:06.884Z,76.00
2023-02-13T06:32:06.805Z,76.00
2023-02-13T06:37:06.768Z,76.00
2023-02-13T06:42:06.689Z,78.00
2023-02-13T06:47:06.622Z,79.00
2023-02-13T06:52:06.584Z,78.00
2023-02-13T06:57:06.502Z,78.00
2023-02-13T07:02:06.430Z,79.00
2023-02-13T07:07:06.386Z,80.00
2023-02-13T07:12:06.297Z,79.00
2023-02-13T07:17:06.250Z,78.00
2023-02-13T07:22:06.181Z,76.00
2023-02-13T07:27:06.127Z,75.00
2023-02-13T07:32:06.100Z,74.00
2023-02-13T07:37:06.002Z,72.00
2023-02-13T07:42:05.928Z,73.00
2023-02-13T07:47:05.923Z,72.00
2023-02-13T07:52:05.805Z,72.00
2023-02-13T07:57:05.755Z,72.00
2023-02-13T08:02:05.762Z,70.00
2023-02-13T08:07:05.612Z,71.00
2023-02-13T08:12:05.590Z,71.00
2023-02-13T08:17:05.488Z,71.00
2023-02-13T08:22:05.477Z,70.00
2023-02-13T08:27:05.374Z,73.00
2023-02-13T08:32:05.393Z,73.00
2023-02-13T08:37:05.251Z,74.00
2023-02-13T08:42:05.211Z,74.00
2023-02-13T08:47:05.102Z,73.00
2023-02-13T08:52:05.057Z,72.00
2023-02-13T08:57:05.006Z,73.00
2023-02-13T09:02:05.005Z,73.00
2023-02-13T09:07:04.899Z,73.00
2023-02-13T09:12:04.822Z,73.00
2023-02-13T09:17:04.769Z,73.00
2023-02-13T09:22:04.681Z,72.00
2023-02-13T09:27:04.625Z,71.00
2023-02-13T09:32:04.624Z,71.00
2023-02-13T09:37:04.540Z,72.00
2023-02-13T09:42:04.445Z,75.00
2023-02-13T09:47:04.414Z,75.00
2023-02-13T09:52:04.362Z,75.00
2023-02-13T09:57:04.256Z,76.00
2023-02-13T10:02:04.207Z,78.00
2023-02-13T10:07:04.156Z,78.00
2023-02-13T10:12:04.118Z,78.00
2023-02-13T10:17:04.049Z,78.00
2023-02-13T10:22:03.963Z,79.00
2023-02-13T10:27:03.883Z,78.00
2023-02-13T10:32:03.987Z,77.00
2023-02-13T10:37:03.748Z,76.00
2023-02-13T10:42:03.715Z,77.00
2023-02-13T10:47:03.635Z,75.00
2023-02-13T10:52:03.588Z,73.00
2023-02-13T10:57:03.500Z,72.00
2023-02-13T11:02:03.540Z,72.00
2023-02-13T11:07:03.386Z,74.00
2023-02-13T11:12:03.309Z,74.00
2023-02-13T11:17:03.230Z,74.00
2023-02-13T11:22:03.206Z,74.00
2023-02-13T11:27:03.129Z,74.00
2023-02-13T11:32:03.178Z,72.00
2023-02-13T11:37:03.001Z,71.00
2023-02-13T11:42:02.911Z,73.00
2023-02-13T11:47:02.927Z,74.00
2023-02-13T11:52:02.775Z,73.00
2023-02-13T11:57:05.052Z,73.00
2023-02-13T12:02:02.674Z,72.00
2023-02-13T12:07:02.599Z,72.00
2023-02-13T12:12:02.584Z,72.00
2023-02-13T12:17:02.479Z,74.00
2023-02-13T12:22:02.427Z,75.00
2023-02-13T12:27:02.381Z,76.00
2023-02-13T12:32:02.386Z,75.00
2023-02-13T12:37:02.239Z,76.00
2023-02-13T12:42:02.170Z,76.00
2023-02-13T12:47:02.140Z,75.00
2023-02-13T12:52:02.072Z,74.00
2023-02-13T12:57:02.006Z,74.00
2023-02-13T13:02:01.954Z,73.00
2023-02-13T13:07:01.866Z,71.00
2023-02-13T13:12:01.801Z,71.00
2023-02-13T13:17:01.833Z,69.00
2023-02-13T13:22:01.705Z,68.00
2023-02-13T13:27:01.633Z,68.00
2023-02-13T13:32:01.627Z,68.00
2023-02-13T13:37:01.485Z,69.00
2023-02-13T13:42:01.755Z,69.00
2023-02-13T13:47:01.380Z,70.00
2023-02-13T13:52:01.297Z,72.00
2023-02-13T13:57:01.254Z,71.00
2023-02-13T14:02:01.165Z,72.00
2023-02-13T14:07:01.447Z,73.00
2023-02-13T14:12:01.041Z,74.00
2023-02-13T14:17:00.978Z,74.00
2023-02-13T14:22:00.908Z,74.00
2023-02-13T14:27:05.818Z,73.00
2023-02-13T14:32:01.962Z,74.00
2023-02-13T14:37:00.726Z,74.00
2023-02-13T14:42:00.750Z,72.00
2023-02-13T14:47:00.626Z,72.00
2023-02-13T14:52:00.558Z,73.00
2023-02-13T14:57:00.542Z,74.00
2023-02-13T15:02:00.442Z,75.00
2023-02-13T15:07:00.434Z,75.00
2023-02-13T15:12:00.316Z,76.00
2023-02-13T15:17:00.278Z,76.00
2023-02-13T15:22:00.200Z,74.00
2023-02-13T15:27:00.132Z,74.00
2023-02-13T15:32:00.249Z,75.00
2023-02-13T15:37:00.013Z,76.00
2023-02-13T15:41:59.938Z,76.00
2023-02-13T15:46:59.923Z,75.00
2023-02-13T15:51:59.847Z,74.00
2023-02-13T15:56:59.761Z,75.00
2023-02-13T16:01:59.742Z,73.00
2023-02-13T16:06:59.969Z,73.00
2023-02-13T16:11:59.564Z,74.00
2023-02-13T16:17:00.279Z,73.00
2023-02-13T16:21:59.562Z,72.00
2023-02-13T16:26:59.386Z,72.00
2023-02-13T16:31:59.373Z,69.00
2023-02-13T16:36:59.275Z,69.00
2023-02-13T16:41:59.225Z,70.00
2023-02-13T16:46:59.195Z,68.00
2023-02-13T16:51:59.061Z,69.00
2023-02-13T16:56:58.994Z,69.00
2023-02-13T17:01:58.941Z,70.00
2023-02-13T17:06:58.906Z,70.00
2023-02-13T17:11:58.800Z,72.00
2023-02-13T17:16:58.737Z,72.00
2023-02-13T17:21:58.690Z,74.00
2023-02-13T17:26:58.649Z,72.00
2023-02-13T17:31:58.621Z,73.00
2023-02-13T17:36:58.515Z,74.00
2023-02-13T17:41:58.454Z,75.00
2023-02-13T17:46:58.376Z,74.00
2023-02-13T17:51:58.329Z,74.00
2023-02-13T17:56:58.257Z,74.00
2023-02-13T18:01:58.174Z,72.00
2023-02-13T18:06:58.134Z,72.00
2023-02-13T18:12:05.460Z,71.00
2023-02-13T18:16:59.026Z,72.00
2023-02-13T18:21:57.998Z,71.00
2023-02-13T18:26:57.927Z,71.00
2023-02-13T18:31:57.903Z,70.00
2023-02-13T18:36:57.771Z,68.00
2023-02-13T18:41:57.710Z,67.00
2023-02-13T18:46:57.655Z,68.00
2023-02-13T18:51:57.571Z,68.00
2023-02-13T18:56:58.446Z,67.00
2023-02-13T19:01:57.473Z,69.00
2023-02-13T19:06:57.381Z,69.00
2023-02-13T19:11:57.391Z,68.00
2023-02-13T19:16:57.245Z,68.00
2023-02-13T19:21:57.250Z,68.00
2023-02-13T19:26:57.137Z,69.00
2023-02-13T19:31:57.145Z,69.00
2023-02-13T19:36:57.057Z,72.00
2023-02-13T19:41:56.954Z,73.00
2023-02-13T19:46:56.927Z,73.00
2023-02-13T19:51:56.860Z,71.00
2023-02-13T19:56:56.817Z,71.00
2023-02-13T20:01:56.878Z,70.00
2023-02-13T20:06:56.740Z,71.00
2023-02-13T20:11:56.629Z,71.00
2023-02-13T20:16:56.545Z,71.00
2023-02-13T20:21:56.501Z,72.00
2023-02-13T20:26:56.462Z,70.00
2023-02-13T20:31:56.480Z,68.00
2023-02-13T20:36:56.353Z,70.00
2023-02-13T20:41:56.291Z,71.00
2023-02-13T20:46:56.188Z,72.00
2023-02-13T20:51:56.079Z,70.00
2023-02-13T20:56:56.057Z,71.00
2023-02-13T21:01:56.021Z,70.00
2023-02-13T21:06:56.006Z,70.00
2023-02-13T21:11:56.001Z,70.00
2023-02-13T21:16:55.869Z,69.00
2023-02-13T21:21:55.786Z,70.00
2023-02-13T21:26:55.698Z,69.00
2023-02-13T21:31:55.709Z,68.00
2023-02-13T21:36:56.508Z,70.00
2023-02-13T21:41:55.606Z,72.00
2023-02-13T21:46:55.546Z,72.00
2023-02-13T21:51:55.355Z,72.00
2023-02-13T21:56:55.300Z,72.00
2023-02-13T22:01:55.351Z,70.00
2023-02-13T22:06:55.192Z,72.00
2023-02-13T22:11:55.152Z,71.00
2023-02-13T22:16:55.173Z,71.00
2023-02-13T22:21:55.001Z,71.00
2023-02-13T22:26:54.974Z,69.00
2023-02-13T22:31:55.023Z,67.00
2023-02-13T22:36:54.860Z,69.00
2023-02-13T22:41:54.777Z,70.00
2023-02-13T22:46:54.733Z,69.00
2023-02-13T22:51:54.705Z,70.00
2023-02-13T22:56:54.577Z,70.00
2023-02-13T23:01:54.517Z,70.00
2023-02-13T23:06:54.488Z,68.00
2023-02-13T23:11:54.384Z,69.00
2023-02-13T23:16:54.391Z,70.00
2023-02-13T23:21:54.310Z,72.00
2023-02-13T23:26:54.220Z,71.00
2023-02-13T23:31:54.356Z,70.00
2023-02-13T23:36:54.124Z,71.00
2023-02-13T23:41:54.029Z,72.00
2023-02-13T23:46:53.979Z,68.00
2023-02-13T23:51:53.921Z,70.00
2023-02-13T23:56:53.873Z,70.00
